Time;durP1;ratioP1;P1;durP2;ratioP2;P2;SDS_P1;SDS_P2;PMS_P1;PMS_P2;Temp;Humidity;BMP_temperature;BMP_pressure;BME280_temperature;BME280_humidity;BME280_pressure;Samples;Min_cycle;Max_cycle;Signal;HPM_P1;HPM_P2
2023/01/31 00:01:39;;;;;;;;;;;;;;;2.49;100.00;100722.28;5016482;28;20325;-86
2023/01/31 00:04:06;;;;;;;;;;;;;;;2.52;100.00;100724.94;4999010;28;19924;-87
2023/01/31 00:06:35;;;;;;;;;;;;;;;2.48;100.00;100725.81;5016490;28;19917;-87
2023/01/31 00:09:02;;;;;;;;;;;;;;;2.46;100.00;100709.22;5016409;28;19960;-87
2023/01/31 00:11:28;;;;;;;;;;;;;;;2.46;100.00;100704.00;5015294;28;19917;-87
2023/01/31 00:13:53;;;;;;;;;;;;;;;2.45;100.00;100702.25;4998953;28;19967;-87
2023/01/31 00:16:20;;;;;;;;;;;;;;;2.45;100.00;100692.63;4998820;28;19917;-87
2023/01/31 00:18:45;;;;;;;;;;;;;;;2.41;100.00;100690.88;4998788;28;19921;-88
2023/01/31 00:21:16;;;;;;;;;;;;;;;2.43;100.00;100688.28;4998734;28;19917;-88
2023/01/31 00:23:42;;;;;;;;;;;;;;;2.38;100.00;100690.88;4998550;28;19924;-88
2023/01/31 00:26:08;;;;;;;;;;;;;;;2.36;100.00;100683.00;4997402;28;19913;-87
2023/01/31 00:28:33;;;;;;;;;;;;;;;2.37;100.00;100681.25;5014943;28;19978;-87
2023/01/31 00:30:58;;;;;;;;;;;;;;;2.35;100.00;100689.09;4982323;28;19925;-88
2023/01/31 00:33:24;;;;;;;;;;;;;;;2.36;100.00;100679.50;4998545;28;19984;-88
2023/01/31 00:35:49;;;;;;;;;;;;;;;2.55;100.00;100683.09;4998516;28;19917;-88
2023/01/31 00:38:14;;;;;;;;;;;;;;;2.88;100.00;100686.69;4998315;28;19922;-88
2023/01/31 00:40:39;;;;;;;;;;;;;;;3.39;100.00;100679.81;4997185;28;19921;-90
2023/01/31 00:43:05;;;;;;;;;;;;;;;3.75;100.00;100683.31;4998389;28;19929;-85
2023/01/31 00:45:33;;;;;;;;;;;;;;;3.98;100.00;100674.56;4998372;28;19917;-90
2023/01/31 00:47:58;;;;;;;;;;;;;;;4.12;100.00;100678.00;5001583;28;19957;-85
2023/01/31 00:50:24;;;;;;;;;;;;;;;4.25;100.00;100678.00;5006298;28;19965;-87
2023/01/31 00:52:49;;;;;;;;;;;;;;;4.37;100.00;100672.69;5014346;28;19917;-85
2023/01/31 00:55:15;;;;;;;;;;;;;;;4.46;100.00;100666.56;5013096;28;20404;-85
2023/01/31 00:57:40;;;;;;;;;;;;;;;4.52;100.00;100672.63;5009261;28;19957;-85
2023/01/31 01:00:08;;;;;;;;;;;;;;;4.59;100.00;100677.88;4998128;28;19972;-85
2023/01/31 01:02:33;;;;;;;;;;;;;;;4.65;100.00;100672.59;4997855;28;20335;-85
2023/01/31 01:05:01;;;;;;;;;;;;;;;4.72;100.00;100674.31;5014267;28;19964;-91
2023/01/31 04:58:42;;;;;;;;;;;;;;;5.73;100.00;100700.81;5427873;23;19989;-88
2023/01/31 05:01:39;;;;;;;;;;;;;;;;;;;;;
2023/01/31 05:04:55;;;;;;;;;;;;;;;;;;;;;
2023/01/31 05:07:47;;;;;;;;;;;;;;;3.93;100.00;100707.78;5010426;28;19922;-86
2023/01/31 05:10:22;;;;;;;;;;;;;;;;;;;;;
2023/01/31 05:15:44;;;;;;;;;;;;;;;3.56;100.00;100697.31;4935464;29;19967;-91
2023/01/31 05:18:09;;;;;;;;;;;;;;;3.43;100.00;100701.63;5003487;28;19926;-86
2023/01/31 05:20:38;;;;;;;;;;;;;;;3.38;100.00;100709.53;4997682;28;19917;-84
2023/01/31 05:23:03;;;;;;;;;;;;;;;3.30;100.00;100721.72;5015308;28;20407;-85
2023/01/31 05:25:29;;;;;;;;;;;;;;;3.24;100.00;100724.34;5015176;28;19921;-84
2023/01/31 05:27:55;;;;;;;;;;;;;;;3.17;100.00;100731.28;5013931;28;19940;-86
2023/01/31 05:30:23;;;;;;;;;;;;;;;3.14;100.00;100727.78;5014968;28;20364;-85
2023/01/31 05:32:51;;;;;;;;;;;;;;;3.08;100.00;100720.81;5015157;28;20372;-85
2023/01/31 05:35:24;;;;;;;;;;;;;;;3.05;100.00;100711.19;4997280;28;20296;-88
2023/01/31 05:37:51;;;;;;;;;;;;;;;3.03;100.00;100712.03;5014822;28;20016;-87
2023/01/31 05:40:17;;;;;;;;;;;;;;;3.00;100.00;100706.78;4997321;28;20393;-87
2023/01/31 05:42:42;;;;;;;;;;;;;;;2.95;100.00;100719.88;5013633;28;20020;-88
2023/01/31 05:45:09;;;;;;;;;;;;;;;2.90;100.00;100711.13;5014878;28;20296;-87
2023/01/31 05:47:34;;;;;;;;;;;;;;;2.86;100.00;100710.25;5014746;28;19925;-87
2023/01/31 05:49:59;;;;;;;;;;;;;;;2.85;100.00;100723.34;4996903;28;20209;-87
2023/01/31 05:52:25;;;;;;;;;;;;;;;2.82;100.00;100723.31;4997156;28;19921;-88
2023/01/31 05:54:50;;;;;;;;;;;;;;;2.79;100.00;100718.94;5014676;28;19913;-87
2023/01/31 05:57:15;;;;;;;;;;;;;;;2.75;100.00;100721.56;4995669;28;19940;-87
2023/01/31 05:59:41;;;;;;;;;;;;;;;2.73;100.00;100709.34;5014507;28;19984;-87
2023/01/31 06:02:07;;;;;;;;;;;;;;;2.71;100.00;100704.94;4996877;28;19921;-87
2023/01/31 06:04:33;;;;;;;;;;;;;;;2.67;100.00;100708.44;5014326;28;19972;-87
2023/01/31 06:07:03;;;;;;;;;;;;;;;2.66;100.00;100702.31;5014477;28;19917;-88
2023/01/31 06:09:29;;;;;;;;;;;;;;;2.62;100.00;100705.81;4996544;28;19922;-88
2023/01/31 06:11:54;;;;;;;;;;;;;;;2.62;100.00;100711.03;5013065;28;20302;-87
2023/01/31 06:14:19;;;;;;;;;;;;;;;2.61;100.00;100704.03;5014102;28;19976;-87
2023/01/31 06:16:45;;;;;;;;;;;;;;;2.57;100.00;100709.25;4996618;28;19925;-86
2023/01/31 06:19:10;;;;;;;;;;;;;;;2.59;100.00;100704.94;5014206;28;20368;-83
2023/01/31 06:21:35;;;;;;;;;;;;;;;2.59;100.00;100704.94;5014170;28;19918;-92
2023/01/31 06:24:01;;;;;;;;;;;;;;;2.56;100.00;100713.63;4996582;28;19964;-87
2023/01/31 09:03:44;;;;;;;;;;;;;;;6.00;100.00;100729.53;5055107;28;19932;-85
2023/01/31 09:06:12;;;;;;;;;;;;;;;6.01;100.00;100725.13;5070267;28;20275;-82
2023/01/31 09:08:38;;;;;;;;;;;;;;;6.03;100.00;100717.22;5075080;28;19916;-84
2023/01/31 09:11:03;;;;;;;;;;;;;;;6.04;100.00;100714.59;5074750;28;19969;-83
2023/01/31 09:13:29;;;;;;;;;;;;;;;6.04;100.00;100713.72;5074967;28;19920;-82
2023/01/31 09:16:02;;;;;;;;;;;;;;;6.07;100.00;100718.97;5052464;28;20085;-82
2023/01/31 09:18:30;;;;;;;;;;;;;;;6.07;100.00;100700.53;5047576;28;19917;-88
2023/01/31 09:21:01;;;;;;;;;;;;;;;6.09;100.00;100698.75;5073548;28;20458;-82
2023/01/31 09:23:29;;;;;;;;;;;;;;;6.11;100.00;100696.97;5071899;28;19916;-83
2023/01/31 09:25:57;;;;;;;;;;;;;;;6.13;100.00;100703.13;5055270;28;19928;-83
2023/01/31 09:28:27;;;;;;;;;;;;;;;6.12;100.00;100698.72;5072020;28;20019;-83
2023/01/31 09:30:52;;;;;;;;;;;;;;;6.13;100.00;100703.97;5069938;28;19923;-83
2023/01/31 09:33:18;;;;;;;;;;;;;;;6.16;100.00;100711.84;5054651;28;19929;-85
2023/01/31 09:35:53;;;;;;;;;;;;;;;6.33;100.00;100719.59;5056647;28;19912;-88
2023/01/31 09:38:34;;;;;;;;;;;;;;;5.49;100.00;100731.69;5074766;28;20007;-87
2023/01/31 09:41:17;;;;;;;;;;;;;;;4.56;100.00;100728.63;5048715;28;20371;-87
2023/01/31 09:43:46;;;;;;;;;;;;;;;4.21;100.00;100733.97;5036777;28;20032;-87
2023/01/31 09:49:36;;;;;;;;;;;;;;;3.89;100.00;100729.63;5022513;28;19920;-91
2023/01/31 09:52:31;;;;;;;;;;;;;;;3.73;100.00;100727.00;5050031;28;19920;-88
2023/01/31 09:54:51;;;;;;;;;;;;;;;3.64;100.00;100727.88;5046052;28;19916;-87
2023/01/31 09:57:16;;;;;;;;;;;;;;;3.55;100.00;100729.63;5054112;28;20440;-86
2023/01/31 10:00:04;;;;;;;;;;;;;;;3.45;100.00;100721.75;5044179;28;19924;-90
2023/01/31 10:02:40;;;;;;;;;;;;;;;3.39;100.00;100721.72;5034889;28;19924;-86
2023/01/31 10:05:34;;;;;;;;;;;;;;;3.36;100.00;100728.72;5060960;28;19999;-86
2023/01/31 10:08:12;;;;;;;;;;;;;;;3.28;100.00;100728.69;5050372;28;20276;-87
2023/01/31 10:10:55;;;;;;;;;;;;;;;;;;;;;
2023/01/31 10:13:39;;;;;;;;;;;;;;;3.18;100.00;100714.72;5060858;28;19927;-89
2023/01/31 10:19:37;;;;;;;;;;;;;;;3.12;100.00;100716.44;5059849;28;20288;-87
2023/01/31 10:22:14;;;;;;;;;;;;;;;3.08;100.00;100726.91;5069648;28;19916;-87
2023/01/31 10:24:46;;;;;;;;;;;;;;;3.04;100.00;100722.53;5070589;28;19920;-86
2023/01/31 10:27:16;;;;;;;;;;;;;;;3.01;100.00;100712.03;5065067;28;19944;-86
2023/01/31 10:29:43;;;;;;;;;;;;;;;2.99;100.00;100708.56;5055914;28;19921;-85
2023/01/31 10:32:30;;;;;;;;;;;;;;;2.97;100.00;100717.25;5034962;28;19921;-85
2023/01/31 10:34:58;;;;;;;;;;;;;;;2.97;100.00;100702.44;5052498;28;19920;-85
2023/01/31 10:37:30;;;;;;;;;;;;;;;2.90;100.00;100701.56;5053725;28;19917;-84
2023/01/31 10:40:11;;;;;;;;;;;;;;;2.91;100.00;100702.41;5035211;28;19923;-86
2023/01/31 10:42:38;;;;;;;;;;;;;;;2.90;100.00;100698.03;5061268;28;19920;-85
2023/01/31 10:45:20;;;;;;;;;;;;;;;2.90;100.00;100698.94;5070235;28;19924;-91
2023/01/31 10:48:00;;;;;;;;;;;;;;;2.85;100.00;100711.13;5071745;28;20014;-85
2023/01/31 10:50:32;;;;;;;;;;;;;;;2.85;100.00;100699.78;5021142;28;19928;-87
2023/01/31 10:53:25;;;;;;;;;;;;;;;2.81;100.00;100695.38;5035440;28;19917;-87
2023/01/31 10:56:13;;;;;;;;;;;;;;;2.80;100.00;100685.81;5036216;28;19916;-87
2023/01/31 10:58:39;;;;;;;;;;;;;;;2.79;100.00;100684.06;5031095;28;20020;-87
2023/01/31 11:01:07;;;;;;;;;;;;;;;2.78;100.00;100675.34;5033892;28;20019;-86
2023/01/31 11:03:51;;;;;;;;;;;;;;;2.79;100.00;100665.72;5046608;28;19921;-86
2023/01/31 11:06:17;;;;;;;;;;;;;;;2.76;100.00;100650.91;5022427;28;19920;-86
2023/01/31 11:08:47;;;;;;;;;;;;;;;2.71;100.00;100658.75;5035163;28;19916;-88
2023/01/31 11:11:16;;;;;;;;;;;;;;;2.71;100.00;100650.88;5035924;28;19925;-86
2023/01/31 11:13:54;;;;;;;;;;;;;;;2.72;100.00;100659.59;5032339;28;19917;-86
2023/01/31 11:16:19;;;;;;;;;;;;;;;2.74;100.00;100655.25;5014261;28;20041;-86
2023/01/31 11:18:46;;;;;;;;;;;;;;;2.70;100.00;100640.41;5031033;28;19917;-86
2023/01/31 11:21:32;;;;;;;;;;;;;;;2.70;100.00;100628.19;5032020;28;19924;-87
2023/01/31 11:27:30;;;;;;;;;;;;;;;2.67;100.00;100609.00;4954381;28;19969;-87
2023/01/31 11:29:57;;;;;;;;;;;;;;;2.65;100.00;100616.84;4947995;29;19977;-86
2023/01/31 11:32:25;;;;;;;;;;;;;;;2.63;100.00;100607.22;4998844;28;19924;-85
2023/01/31 11:34:56;;;;;;;;;;;;;;;2.63;100.00;100608.13;5065005;28;20016;-86
2023/01/31 11:37:21;;;;;;;;;;;;;;;2.60;100.00;100612.47;5059118;28;19916;-86
2023/01/31 11:39:57;;;;;;;;;;;;;;;2.60;100.00;100615.97;5076912;28;19917;-85
2023/01/31 11:42:34;;;;;;;;;;;;;;;2.60;100.00;100618.59;5056960;28;19916;-86
2023/01/31 11:45:29;;;;;;;;;;;;;;;;;;;;;
2023/01/31 11:48:00;;;;;;;;;;;;;;;2.56;100.00;100610.72;5055968;28;19917;-87
2023/01/31 11:50:46;;;;;;;;;;;;;;;2.58;100.00;100603.72;5038619;28;20347;-90
2023/01/31 11:53:42;;;;;;;;;;;;;;;;;;;;;
2023/01/31 11:56:33;;;;;;;;;;;;;;;2.52;100.00;100596.72;5054637;28;19919;-88
2023/01/31 11:59:06;;;;;;;;;;;;;;;2.50;100.00;100588.88;5038552;28;20020;-86
2023/01/31 12:01:48;;;;;;;;;;;;;;;2.51;100.00;100587.16;5055427;28;19945;-92
2023/01/31 12:04:19;;;;;;;;;;;;;;;2.51;100.00;100581.91;5056368;28;20002;-89
2023/01/31 12:07:16;;;;;;;;;;;;;;;2.51;100.00;100587.16;5039018;28;19939;-90
2023/01/31 12:10:01;;;;;;;;;;;;;;;;;;;;;
2023/01/31 12:12:52;;;;;;;;;;;;;;;2.50;100.00;100569.69;5056471;28;20279;-89
2023/01/31 12:15:30;;;;;;;;;;;;;;;2.48;100.00;100560.97;5046584;28;20295;-88
2023/01/31 12:18:01;;;;;;;;;;;;;;;2.47;100.00;100559.22;5058784;28;20057;-88
2023/01/31 12:20:36;;;;;;;;;;;;;;;2.47;100.00;100547.03;5058740;28;20326;-88
2023/01/31 12:23:10;;;;;;;;;;;;;;;2.43;100.00;100532.19;5070364;28;19927;-89
2023/01/31 12:28:59;;;;;;;;;;;;;;;;;;;;;
2023/01/31 12:38:13;;;;;;;;;;;;;;;;;;;;;
2023/01/31 12:40:52;;;;;;;;;;;;;;;4.38;100.00;100500.38;4954492;28;19933;-88
2023/01/31 12:43:29;;;;;;;;;;;;;;;4.49;100.00;100498.56;4996642;28;19928;-88
2023/01/31 12:46:11;;;;;;;;;;;;;;;;;;;;;
2023/01/31 12:48:42;;;;;;;;;;;;;;;4.70;100.00;100494.91;5013049;28;19918;-87
2023/01/31 12:51:31;;;;;;;;;;;;;;;4.79;100.00;100497.47;5028767;28;19917;-88
2023/01/31 12:54:17;;;;;;;;;;;;;;;4.85;100.00;100507.94;5055509;28;20410;-89
2023/01/31 12:57:01;;;;;;;;;;;;;;;4.91;100.00;100496.50;5047423;28;19924;-88
2023/01/31 12:59:33;;;;;;;;;;;;;;;4.97;100.00;100500.84;5037686;28;19923;-88
2023/01/31 13:02:33;;;;;;;;;;;;;;;5.02;100.00;100494.63;5039812;28;19944;-88
2023/01/31 13:05:21;;;;;;;;;;;;;;;5.07;100.00;100494.59;5071661;28;20019;-87
2023/01/31 13:08:16;;;;;;;;;;;;;;;;;;;;;
2023/01/31 13:10:57;;;;;;;;;;;;;;;5.18;100.00;100478.75;5032819;28;20407;-88
2023/01/31 13:13:32;;;;;;;;;;;;;;;5.22;100.00;100468.19;5000140;28;19964;-87
2023/01/31 13:16:23;;;;;;;;;;;;;;;5.26;100.00;100472.56;5026764;28;19975;-88
2023/01/31 13:18:50;;;;;;;;;;;;;;;5.30;100.00;100464.59;5015842;28;19956;-88
2023/01/31 13:21:36;;;;;;;;;;;;;;;5.32;100.00;100482.13;5020846;28;19933;-88
2023/01/31 13:24:12;;;;;;;;;;;;;;;5.34;100.00;100475.06;5031611;28;19921;-88
2023/01/31 13:27:21;;;;;;;;;;;;;;;5.39;100.00;100468.03;5007535;28;19972;-89
2023/01/31 13:30:16;;;;;;;;;;;;;;;5.41;100.00;100455.75;4985275;28;20520;-88
2023/01/31 13:32:51;;;;;;;;;;;;;;;5.50;100.00;100448.63;4919883;28;19935;-88
2023/01/31 13:35:27;;;;;;;;;;;;;;;5.52;100.00;100439.84;5039907;28;19921;-88
2023/01/31 13:38:03;;;;;;;;;;;;;;;5.55;100.00;100436.28;5045457;28;19956;-87
2023/01/31 13:40:33;;;;;;;;;;;;;;;5.58;100.00;100421.34;5056766;28;20282;-88
2023/01/31 13:43:03;;;;;;;;;;;;;;;5.57;100.00;100414.38;5039715;28;19917;-88
2023/01/31 13:45:34;;;;;;;;;;;;;;;5.61;100.00;100408.16;4992887;28;19988;-88
2023/01/31 13:48:17;;;;;;;;;;;;;;;5.64;100.00;100408.13;5005139;28;20292;-88
2023/01/31 13:51:14;;;;;;;;;;;;;;;5.67;100.00;100417.75;5012518;28;19917;-87
2023/01/31 13:53:46;;;;;;;;;;;;;;;5.68;100.00;100415.97;5017174;28;19917;-89
2023/01/31 13:56:24;;;;;;;;;;;;;;;5.71;100.00;100410.69;5032477;28;20004;-91
2023/01/31 13:58:52;;;;;;;;;;;;;;;5.74;100.00;100413.28;5025434;28;19968;-89
2023/01/31 14:01:22;;;;;;;;;;;;;;;5.73;100.00;100417.69;5014213;28;20063;-89
2023/01/31 14:04:14;;;;;;;;;;;;;;;5.78;100.00;100420.25;5031982;28;19953;-88
2023/01/31 14:06:56;;;;;;;;;;;;;;;5.79;100.00;100414.06;5005038;28;19925;-88
2023/01/31 14:09:21;;;;;;;;;;;;;;;5.81;100.00;100407.91;5014193;28;19920;-88
2023/01/31 14:11:54;;;;;;;;;;;;;;;5.83;100.00;100411.38;5036707;28;19924;-88
2023/01/31 14:14:58;;;;;;;;;;;;;;;5.86;100.00;100414.91;5055351;28;19928;-87
2023/01/31 14:17:26;;;;;;;;;;;;;;;5.87;100.00;100429.75;5071615;28;19916;-93
2023/01/31 14:19:51;;;;;;;;;;;;;;;5.88;100.00;100442.03;5073871;28;20371;-88
2023/01/31 14:22:22;;;;;;;;;;;;;;;5.89;100.00;100426.22;5058758;28;19917;-88
2023/01/31 14:24:58;;;;;;;;;;;;;;;5.92;100.00;100420.03;5035984;28;20440;-89
2023/01/31 14:27:24;;;;;;;;;;;;;;;5.93;100.00;100433.19;5046811;28;19923;-89
2023/01/31 14:30:10;;;;;;;;;;;;;;;5.96;100.00;100432.28;5073454;28;20350;-91
2023/01/31 14:32:55;;;;;;;;;;;;;;;;;;;;;
2023/01/31 14:35:36;;;;;;;;;;;;;;;;;;;;;
2023/01/31 14:38:15;;;;;;;;;;;;;;;;;;;;;
2023/01/31 14:41:16;;;;;;;;;;;;;;;6.03;100.00;100439.25;5053632;28;19920;-88
2023/01/31 14:44:10;;;;;;;;;;;;;;;;;;;;;
2023/01/31 14:46:50;;;;;;;;;;;;;;;6.08;100.00;100441.78;5053059;28;19917;-92
2023/01/31 14:49:58;;;;;;;;;;;;;;;6.09;100.00;100443.53;5053526;28;19924;-91
2023/01/31 14:52:54;;;;;;;;;;;;;;;6.10;100.00;100445.28;5052635;28;19921;-89
2023/01/31 14:55:23;;;;;;;;;;;;;;;6.12;100.00;100454.88;5049497;28;19917;-88
2023/01/31 14:58:13;;;;;;;;;;;;;;;6.14;100.00;100457.50;5035028;28;19921;-89
2023/01/31 15:00:46;;;;;;;;;;;;;;;6.15;100.00;100467.13;5035300;28;19923;-88
2023/01/31 15:03:14;;;;;;;;;;;;;;;6.17;100.00;100481.13;5059983;28;19935;-88
2023/01/31 15:05:53;;;;;;;;;;;;;;;6.18;100.00;100485.50;5055072;28;20371;-91
2023/01/31 15:08:50;;;;;;;;;;;;;;;;;;;;;
2023/01/31 15:11:18;;;;;;;;;;;;;;;6.21;100.00;100489.84;5052637;28;19921;-91
2023/01/31 15:14:10;;;;;;;;;;;;;;;6.22;100.00;100481.94;5034801;28;19921;-89
2023/01/31 15:16:43;;;;;;;;;;;;;;;6.23;100.00;100483.69;5051080;28;19917;-87
2023/01/31 15:19:23;;;;;;;;;;;;;;;5.24;100.00;100484.81;5057080;28;19925;-90
2023/01/31 15:25:30;;;;;;;;;;;;;;;4.27;100.00;100495.19;5021725;28;20284;-89
2023/01/31 15:28:01;;;;;;;;;;;;;;;4.13;100.00;100488.28;5055829;28;19917;-88
2023/01/31 15:30:32;;;;;;;;;;;;;;;3.96;100.00;100498.84;5034805;28;20269;-89
2023/01/31 15:33:16;;;;;;;;;;;;;;;3.89;100.00;100491.88;5051825;28;20292;-88
2023/01/31 15:35:44;;;;;;;;;;;;;;;3.76;100.00;100493.69;5042770;28;19924;-88
2023/01/31 15:38:10;;;;;;;;;;;;;;;3.70;100.00;100500.69;5057275;28;19975;-87
2023/01/31 15:40:35;;;;;;;;;;;;;;;3.70;100.00;100485.84;5066476;28;20453;-86
2023/01/31 15:43:21;;;;;;;;;;;;;;;3.64;100.00;100485.88;5052704;28;19921;-93
2023/01/31 15:45:51;;;;;;;;;;;;;;;3.55;100.00;100488.53;5035580;28;19921;-88
2023/01/31 15:48:48;;;;;;;;;;;;;;;3.49;100.00;100488.53;5052143;28;19923;-94
2023/01/31 15:51:14;;;;;;;;;;;;;;;3.44;100.00;100497.25;5050933;28;19968;-86
2023/01/31 15:53:52;;;;;;;;;;;;;;;3.36;100.00;100493.78;5037449;28;20238;-91
2023/01/31 15:56:28;;;;;;;;;;;;;;;3.31;100.00;100492.94;5057892;28;19924;-88
2023/01/31 15:58:55;;;;;;;;;;;;;;;3.28;100.00;100498.19;5037552;28;20333;-90
2023/01/31 16:01:32;;;;;;;;;;;;;;;3.21;100.00;100496.47;5054358;28;19927;-89
2023/01/31 16:03:58;;;;;;;;;;;;;;;3.17;100.00;100499.94;5047678;28;19944;-88
2023/01/31 16:06:28;;;;;;;;;;;;;;;3.16;100.00;100499.09;5063835;28;19921;-87
2023/01/31 16:08:59;;;;;;;;;;;;;;;3.13;100.00;100499.09;5044692;28;19928;-87
2023/01/31 16:11:25;;;;;;;;;;;;;;;3.06;100.00;100493.00;5055189;28;21901;-87
2023/01/31 16:13:51;;;;;;;;;;;;;;;3.11;100.00;100499.94;5062120;28;20011;-86
2023/01/31 16:16:17;;;;;;;;;;;;;;;3.05;100.00;100499.09;5054894;28;19955;-87
2023/01/31 16:18:46;;;;;;;;;;;;;;;3.01;100.00;100502.56;5063293;28;19968;-89
2023/01/31 16:21:14;;;;;;;;;;;;;;;2.96;100.00;100501.69;5040311;28;19956;-87
2023/01/31 16:23:40;;;;;;;;;;;;;;;2.94;100.00;100500.84;5060145;28;19917;-86
2023/01/31 16:26:05;;;;;;;;;;;;;;;2.90;100.00;100504.31;5060688;28;20334;-87
2023/01/31 16:28:35;;;;;;;;;;;;;;;2.89;100.00;100505.22;5048368;28;19923;-88
2023/01/31 16:31:27;;;;;;;;;;;;;;;2.89;100.00;100494.75;5055809;28;20440;-88
2023/01/31 16:33:53;;;;;;;;;;;;;;;2.88;100.00;100492.97;5066685;28;20021;-87
2023/01/31 16:36:25;;;;;;;;;;;;;;;2.83;100.00;100486.88;5066707;28;19959;-86
2023/01/31 16:39:16;;;;;;;;;;;;;;;2.84;100.00;100486.88;5073208;28;19936;-88
2023/01/31 16:41:44;;;;;;;;;;;;;;;2.85;100.00;100495.59;5025382;28;19967;-86
2023/01/31 16:44:12;;;;;;;;;;;;;;;2.81;100.00;100496.47;5037848;28;20296;-86
2023/01/31 16:46:39;;;;;;;;;;;;;;;2.80;100.00;100495.59;5036544;28;19925;-87
2023/01/31 16:49:05;;;;;;;;;;;;;;;2.78;100.00;100499.97;5037972;28;20429;-86
2023/01/31 16:51:41;;;;;;;;;;;;;;;2.80;100.00;100494.72;5061207;28;20291;-86
2023/01/31 16:54:34;;;;;;;;;;;;;;;2.75;100.00;100497.34;5061672;28;20372;-87
2023/01/31 16:57:02;;;;;;;;;;;;;;;2.76;100.00;100490.34;5043082;28;19925;-87
2023/01/31 16:59:33;;;;;;;;;;;;;;;2.73;100.00;100489.50;5058320;28;19927;-86
2023/01/31 17:02:21;;;;;;;;;;;;;;;2.75;100.00;100491.25;5062003;28;19969;-87
2023/01/31 17:04:59;;;;;;;;;;;;;;;2.70;100.00;100492.09;5040881;28;19921;-86
2023/01/31 17:07:29;;;;;;;;;;;;;;;2.72;100.00;100492.09;5055247;28;19921;-86
2023/01/31 17:10:16;;;;;;;;;;;;;;;2.70;100.00;100488.63;5036859;28;19924;-87
2023/01/31 17:12:43;;;;;;;;;;;;;;;2.70;100.00;100489.50;5044019;28;20027;-87
2023/01/31 17:15:15;;;;;;;;;;;;;;;2.69;100.00;100479.88;5056837;28;19925;-87
2023/01/31 17:17:48;;;;;;;;;;;;;;;2.69;100.00;100477.25;5073139;28;20408;-85
2023/01/31 17:20:14;;;;;;;;;;;;;;;2.64;100.00;100470.31;5057011;28;19939;-88
2023/01/31 17:22:42;;;;;;;;;;;;;;;2.65;100.00;100472.03;5074929;28;19922;-86
2023/01/31 17:25:36;;;;;;;;;;;;;;;2.65;100.00;100472.91;5075036;28;20419;-87
2023/01/31 17:28:12;;;;;;;;;;;;;;;2.65;100.00;100470.31;5068601;28;20287;-87
2023/01/31 17:30:45;;;;;;;;;;;;;;;2.66;100.00;100472.03;5073915;28;19963;-88
2023/01/31 17:33:14;;;;;;;;;;;;;;;2.64;100.00;100470.31;5073176;28;19938;-88
2023/01/31 17:35:44;;;;;;;;;;;;;;;2.63;100.00;100461.59;5055623;28;19920;-87
2023/01/31 17:38:17;;;;;;;;;;;;;;;2.61;100.00;100465.94;5036955;28;19920;-87
2023/01/31 17:41:04;;;;;;;;;;;;;;;2.63;100.00;100461.59;5042762;28;19916;-87
2023/01/31 17:43:31;;;;;;;;;;;;;;;2.66;100.00;100458.94;5061206;28;19932;-86
2023/01/31 17:45:59;;;;;;;;;;;;;;;2.62;100.00;100459.84;5041553;28;20330;-86
2023/01/31 17:48:37;;;;;;;;;;;;;;;;;;;;;
2023/01/31 17:51:16;;;;;;;;;;;;;;;;;;;;;
2023/01/31 17:53:41;;;;;;;;;;;;;;;2.57;100.00;100461.59;5054363;28;19916;-85
2023/01/31 17:56:30;;;;;;;;;;;;;;;2.57;100.00;100456.34;5056541;28;20008;-87
2023/01/31 17:58:55;;;;;;;;;;;;;;;2.56;100.00;100454.59;5062437;28;19920;-83
2023/01/31 18:01:20;;;;;;;;;;;;;;;2.55;100.00;100463.31;5063048;28;20281;-86
2023/01/31 18:03:46;;;;;;;;;;;;;;;2.56;100.00;100458.97;5053706;28;20334;-82
2023/01/31 18:06:38;;;;;;;;;;;;;;;2.56;100.00;100458.97;5054085;28;19946;-85
2023/01/31 18:09:08;;;;;;;;;;;;;;;2.52;100.00;100451.09;5058763;28;19917;-86
2023/01/31 18:11:34;;;;;;;;;;;;;;;2.54;100.00;100465.06;5050967;28;20397;-86
2023/01/31 18:14:02;;;;;;;;;;;;;;;2.54;100.00;100461.56;5049929;28;20003;-82
2023/01/31 18:16:27;;;;;;;;;;;;;;;2.52;100.00;100464.19;5059154;28;20004;-81
2023/01/31 18:18:53;;;;;;;;;;;;;;;2.51;100.00;100466.81;5069357;28;20106;-81
2023/01/31 18:21:19;;;;;;;;;;;;;;;2.52;100.00;100473.75;5073396;28;19943;-82
2023/01/31 18:23:48;;;;;;;;;;;;;;;2.46;100.00;100468.56;5064270;28;19916;-84
2023/01/31 18:26:16;;;;;;;;;;;;;;;2.46;100.00;100476.41;5053195;28;19916;-86
2023/01/31 18:28:45;;;;;;;;;;;;;;;2.52;100.00;100473.75;5053150;28;19923;-85
2023/01/31 18:31:12;;;;;;;;;;;;;;;2.46;100.00;100469.41;5053367;28;20396;-87
2023/01/31 18:33:38;;;;;;;;;;;;;;;2.47;100.00;100468.56;5052438;28;19916;-88
2023/01/31 18:36:22;;;;;;;;;;;;;;;2.48;100.00;100472.03;5053073;28;20390;-87
2023/01/31 18:38:50;;;;;;;;;;;;;;;2.47;100.00;100478.13;5035111;28;19916;-87
2023/01/31 18:41:17;;;;;;;;;;;;;;;2.45;100.00;100480.75;5035468;28;19913;-87
2023/01/31 18:43:43;;;;;;;;;;;;;;;2.43;100.00;100479.00;5052882;28;19944;-87
2023/01/31 18:46:09;;;;;;;;;;;;;;;2.43;100.00;100471.16;5053446;28;19917;-86
2023/01/31 18:48:53;;;;;;;;;;;;;;;2.43;100.00;100465.94;5033837;28;20534;-87
2023/01/31 18:51:21;;;;;;;;;;;;;;;2.43;100.00;100468.53;5052590;28;19921;-86
2023/01/31 18:53:47;;;;;;;;;;;;;;;2.42;100.00;100467.66;5035581;28;19917;-87
2023/01/31 18:56:19;;;;;;;;;;;;;;;2.44;100.00;100467.66;5035370;28;19917;-86
2023/01/31 18:58:45;;;;;;;;;;;;;;;2.41;100.00;100476.38;5053013;28;19962;-87
2023/01/31 19:01:12;;;;;;;;;;;;;;;2.72;100.00;100474.66;5053023;28;19924;-87
2023/01/31 19:03:38;;;;;;;;;;;;;;;2.92;100.00;100481.66;5033798;28;19928;-87
2023/01/31 19:06:07;;;;;;;;;;;;;;;3.08;100.00;100486.00;5064042;28;19925;-87
2023/01/31 19:08:33;;;;;;;;;;;;;;;3.57;100.00;100482.38;5063249;28;20372;-88
2023/01/31 19:11:02;;;;;;;;;;;;;;;3.88;100.00;100478.78;5053020;28;19920;-88
2023/01/31 19:13:31;;;;;;;;;;;;;;;4.07;100.00;100480.44;5034781;28;19932;-86
2023/01/31 19:16:00;;;;;;;;;;;;;;;4.23;100.00;100488.22;5052761;28;19917;-86
2023/01/31 19:18:25;;;;;;;;;;;;;;;4.34;100.00;100478.53;5051775;28;19920;-87
2023/01/31 19:21:14;;;;;;;;;;;;;;;;;;;;;
2023/01/31 19:23:45;;;;;;;;;;;;;;;4.53;100.00;100474.91;5053087;28;19920;-89
2023/01/31 19:26:11;;;;;;;;;;;;;;;4.61;100.00;100473.97;5052905;28;19919;-86
2023/01/31 19:28:38;;;;;;;;;;;;;;;4.68;100.00;100473.06;5043696;28;20339;-85
2023/01/31 19:31:04;;;;;;;;;;;;;;;4.74;100.00;100478.28;5052773;28;19921;-88
2023/01/31 19:33:29;;;;;;;;;;;;;;;4.81;100.00;100477.31;5051772;28;20432;-90
2023/01/31 19:35:55;;;;;;;;;;;;;;;4.84;100.00;100485.19;5052973;28;19921;-89
2023/01/31 19:38:20;;;;;;;;;;;;;;;4.89;100.00;100480.75;5052732;28;19917;-86
2023/01/31 19:40:48;;;;;;;;;;;;;;;4.93;100.00;100484.25;5040411;28;19956;-88
2023/01/31 19:43:13;;;;;;;;;;;;;;;4.97;100.00;100475.44;5040527;28;19921;-87
2023/01/31 19:45:38;;;;;;;;;;;;;;;5.01;100.00;100469.28;5062759;28;20026;-86
2023/01/31 19:48:04;;;;;;;;;;;;;;;5.05;100.00;100462.25;5059016;28;19920;-85
2023/01/31 19:50:29;;;;;;;;;;;;;;;5.08;100.00;100459.59;5063412;28;19924;-85
2023/01/31 19:56:25;;;;;;;;;;;;;;;5.15;100.00;100468.25;5035660;23;19929;-87
2023/01/31 19:58:51;;;;;;;;;;;;;;;5.17;100.00;100459.50;4999858;28;19929;-91
2023/01/31 20:01:18;;;;;;;;;;;;;;;5.21;100.00;100453.31;5016891;28;20356;-88
2023/01/31 20:03:53;;;;;;;;;;;;;;;5.23;100.00;100453.28;5035557;28;19921;-91
2023/01/31 20:06:36;;;;;;;;;;;;;;;5.25;100.00;100448.91;5036559;28;19959;-91
2023/01/31 20:13:16;;;;;;;;;;;;;;;;;;;;;
2023/01/31 20:15:42;;;;;;;;;;;;;;;5.37;100.00;100466.28;5027494;28;19928;-88
2023/01/31 20:18:30;;;;;;;;;;;;;;;5.37;100.00;100474.19;5042506;28;19917;-89
2023/01/31 20:23:56;;;;;;;;;;;;;;;5.44;100.00;100470.59;5032259;28;19924;-91
2023/01/31 20:26:51;;;;;;;;;;;;;;;5.45;100.00;100469.72;5035700;28;20368;-91
2023/01/31 20:29:18;;;;;;;;;;;;;;;5.49;100.00;100478.41;5017681;28;20445;-89
2023/01/31 20:31:56;;;;;;;;;;;;;;;;;;;;;
2023/01/31 20:34:22;;;;;;;;;;;;;;;5.53;100.00;100456.47;5035498;28;19917;-88
2023/01/31 20:36:49;;;;;;;;;;;;;;;5.55;100.00;100442.44;5035517;28;20035;-85
2023/01/31 20:39:14;;;;;;;;;;;;;;;5.56;100.00;100445.94;5035114;28;20380;-84